Time;durP1;ratioP1;P1;durP2;ratioP2;P2;SDS_P1;SDS_P2;PMS_P1;PMS_P2;Temp;Humidity;BMP_temperature;BMP_pressure;BME280_temperature;BME280_humidity;BME280_pressure;Samples;Min_cycle;Max_cycle;Signal;HPM_P1;HPM_P2
2022/01/29 00:01:36;;;;;;;;;;;12.40;57.70;;;;;;4980011;28;19917;-89
2022/01/29 00:04:01;;;;;;;;;;;12.40;57.70;;;;;;4999869;28;19976;-89
2022/01/29 00:06:27;;;;;;;;;;;12.40;57.80;;;;;;5003996;28;19928;-89
2022/01/29 00:08:55;;;;;;;;;;;12.40;57.50;;;;;;4999941;28;19976;-89
2022/01/29 00:11:26;;;;;;;;;;;12.40;57.80;;;;;;5000180;28;19933;-89
2022/01/29 00:13:52;;;;;;;;;;;12.40;57.80;;;;;;4982536;28;19914;-89
2022/01/29 00:16:17;;;;;;;;;;;12.40;57.90;;;;;;4998556;28;20025;-89
2022/01/29 00:18:43;;;;;;;;;;;12.40;57.80;;;;;;4984859;28;20372;-88
2022/01/29 00:21:08;;;;;;;;;;;12.40;57.80;;;;;;4973871;28;19918;-89
2022/01/29 00:23:34;;;;;;;;;;;12.40;57.90;;;;;;4982225;28;19942;-89
2022/01/29 00:26:00;;;;;;;;;;;12.40;58.20;;;;;;4999282;28;19918;-89
2022/01/29 00:28:27;;;;;;;;;;;12.50;58.10;;;;;;4979360;28;19910;-88
2022/01/29 00:30:52;;;;;;;;;;;12.50;57.80;;;;;;4995087;28;20036;-89
2022/01/29 00:33:18;;;;;;;;;;;12.50;57.90;;;;;;4992654;28;19921;-89
2022/01/29 00:35:44;;;;;;;;;;;12.50;57.90;;;;;;5004500;28;19973;-89
2022/01/29 00:38:09;;;;;;;;;;;12.50;57.60;;;;;;4999557;28;19922;-89
2022/01/29 00:40:36;;;;;;;;;;;12.50;57.70;;;;;;4995283;28;20017;-89
2022/01/29 00:43:02;;;;;;;;;;;12.50;57.80;;;;;;4978535;28;19985;-88
2022/01/29 00:45:28;;;;;;;;;;;12.50;57.80;;;;;;4982158;28;19918;-88
2022/01/29 00:47:54;;;;;;;;;;;12.50;57.60;;;;;;4983232;28;20428;-89
2022/01/29 00:50:19;;;;;;;;;;;12.50;57.80;;;;;;4985505;28;19972;-88
2022/01/29 00:52:45;;;;;;;;;;;12.50;58.10;;;;;;5004537;28;19913;-89
2022/01/29 00:55:11;;;;;;;;;;;12.50;57.80;;;;;;4986054;28;20340;-89
2022/01/29 00:57:39;;;;;;;;;;;12.50;57.90;;;;;;4979822;28;19913;-89
2022/01/29 01:00:06;;;;;;;;;;;12.50;57.60;;;;;;4999192;28;20026;-88
2022/01/29 01:02:31;;;;;;;;;;;12.50;57.60;;;;;;4996537;28;19925;-87
2022/01/29 01:04:56;;;;;;;;;;;12.50;57.80;;;;;;4995233;28;19918;-89
2022/01/29 01:07:22;;;;;;;;;;;12.60;58.10;;;;;;4979291;28;19914;-89
2022/01/29 01:09:48;;;;;;;;;;;12.60;57.70;;;;;;4993635;28;19922;-89
2022/01/29 01:12:13;;;;;;;;;;;12.50;57.60;;;;;;4962977;28;19916;-88
2022/01/29 01:14:38;;;;;;;;;;;12.60;57.90;;;;;;4977628;28;19918;-88
2022/01/29 01:17:05;;;;;;;;;;;12.60;57.70;;;;;;4978782;28;19980;-88
2022/01/29 01:19:30;;;;;;;;;;;12.60;57.80;;;;;;4977835;28;19926;-88
2022/01/29 01:21:56;;;;;;;;;;;12.70;57.50;;;;;;4985960;28;19921;-89
2022/01/29 01:24:22;;;;;;;;;;;12.60;57.40;;;;;;4996440;28;19953;-89
2022/01/29 01:26:48;;;;;;;;;;;12.70;57.60;;;;;;4983608;28;19971;-89
2022/01/29 01:29:14;;;;;;;;;;;12.60;57.80;;;;;;5002082;28;19914;-89
2022/01/29 01:31:40;;;;;;;;;;;12.60;57.80;;;;;;4980277;28;19921;-88
2022/01/29 01:34:06;;;;;;;;;;;12.70;57.70;;;;;;4977325;28;19910;-88
2022/01/29 01:36:35;;;;;;;;;;;12.70;57.70;;;;;;4970688;28;19918;-89
2022/01/29 01:39:08;;;;;;;;;;;12.70;57.60;;;;;;4999493;28;19936;-89
2022/01/29 01:41:39;;;;;;;;;;;12.70;57.20;;;;;;4985029;28;19921;-88
2022/01/29 01:44:05;;;;;;;;;;;12.60;57.40;;;;;;5001716;28;20369;-88
2022/01/29 01:46:31;;;;;;;;;;;12.70;57.90;;;;;;4982144;28;19922;-89
2022/01/29 01:48:56;;;;;;;;;;;12.70;57.70;;;;;;4979049;28;19989;-88
2022/01/29 01:51:22;;;;;;;;;;;12.70;57.30;;;;;;4984216;28;19918;-88
2022/01/29 01:53:48;;;;;;;;;;;12.70;57.30;;;;;;4999271;28;19914;-89
2022/01/29 01:56:13;;;;;;;;;;;12.70;57.60;;;;;;4994030;28;19924;-89
2022/01/29 01:58:39;;;;;;;;;;;12.70;57.30;;;;;;4996195;28;19972;-89
2022/01/29 02:01:05;;;;;;;;;;;12.70;57.20;;;;;;4995129;28;19925;-89
2022/01/29 02:03:30;;;;;;;;;;;12.60;57.20;;;;;;4992091;28;19925;-89
2022/01/29 02:05:57;;;;;;;;;;;12.70;57.40;;;;;;5000800;28;19918;-88
2022/01/29 02:08:23;;;;;;;;;;;12.70;57.40;;;;;;4982964;28;19905;-89
2022/01/29 02:10:49;;;;;;;;;;;12.70;57.30;;;;;;4978743;28;20285;-87
2022/01/29 02:13:15;;;;;;;;;;;12.70;57.40;;;;;;4978950;28;19968;-89
2022/01/29 02:15:40;;;;;;;;;;;12.70;57.60;;;;;;4997652;28;19922;-89
2022/01/29 02:18:13;;;;;;;;;;;12.70;57.60;;;;;;4982235;28;20269;-89
2022/01/29 02:20:38;;;;;;;;;;;12.70;57.60;;;;;;4980440;28;19918;-88
2022/01/29 02:23:04;;;;;;;;;;;12.70;57.60;;;;;;4969619;28;19922;-88
2022/01/29 02:25:43;;;;;;;;;;;12.70;57.50;;;;;;4979447;28;19924;-89
2022/01/29 02:28:09;;;;;;;;;;;12.70;57.00;;;;;;4965714;28;20028;-89
2022/01/29 02:30:36;;;;;;;;;;;12.70;57.00;;;;;;4997646;28;19918;-88
2022/01/29 02:33:05;;;;;;;;;;;12.60;56.90;;;;;;5005210;28;19921;-89
2022/01/29 02:35:30;;;;;;;;;;;12.70;57.30;;;;;;5000168;28;19927;-89
2022/01/29 02:37:56;;;;;;;;;;;12.70;57.50;;;;;;4995008;28;20294;-88
2022/01/29 02:40:22;;;;;;;;;;;12.70;57.40;;;;;;4979053;28;20318;-88
2022/01/29 02:42:49;;;;;;;;;;;12.70;57.20;;;;;;4979492;28;19913;-89
2022/01/29 02:45:14;;;;;;;;;;;12.70;57.30;;;;;;4981138;28;19953;-89
2022/01/29 02:47:40;;;;;;;;;;;12.70;57.40;;;;;;4997673;28;19956;-88
2022/01/29 02:50:06;;;;;;;;;;;12.70;57.40;;;;;;4993547;28;19957;-89
2022/01/29 02:52:32;;;;;;;;;;;12.70;57.60;;;;;;5000833;28;19905;-89
2022/01/29 02:54:57;;;;;;;;;;;12.70;57.80;;;;;;4998112;28;19918;-89
2022/01/29 02:57:23;;;;;;;;;;;12.60;57.90;;;;;;4976099;28;20320;-88
2022/01/29 02:59:49;;;;;;;;;;;12.60;58.20;;;;;;4989056;28;19937;-88
2022/01/29 03:02:15;;;;;;;;;;;12.40;58.20;;;;;;4985176;28;19960;-88
2022/01/29 03:04:42;;;;;;;;;;;12.40;58.30;;;;;;4980072;28;19918;-88
2022/01/29 03:07:08;;;;;;;;;;;12.30;58.60;;;;;;4980037;28;19925;-88
2022/01/29 03:09:33;;;;;;;;;;;12.30;58.80;;;;;;4977396;28;19940;-89
2022/01/29 03:11:59;;;;;;;;;;;12.30;59.10;;;;;;4978353;28;20016;-89
2022/01/29 03:14:24;;;;;;;;;;;12.20;59.20;;;;;;4983099;28;19910;-88
2022/01/29 03:16:50;;;;;;;;;;;12.20;59.40;;;;;;4997412;28;20008;-88
2022/01/29 03:19:15;;;;;;;;;;;12.20;59.40;;;;;;5004530;28;20305;-89
2022/01/29 03:21:41;;;;;;;;;;;12.20;59.50;;;;;;4995473;28;20421;-89
2022/01/29 03:24:06;;;;;;;;;;;12.20;59.70;;;;;;4997720;28;19956;-88
2022/01/29 03:26:32;;;;;;;;;;;12.20;59.70;;;;;;4997358;28;19913;-88
2022/01/29 03:28:57;;;;;;;;;;;12.10;59.70;;;;;;4998427;28;20000;-88
2022/01/29 03:31:26;;;;;;;;;;;12.10;59.70;;;;;;4980840;28;20404;-88
2022/01/29 03:33:52;;;;;;;;;;;12.20;59.90;;;;;;4995453;28;19921;-89
2022/01/29 03:36:17;;;;;;;;;;;12.20;60.00;;;;;;4978027;28;19941;-89
2022/01/29 03:38:43;;;;;;;;;;;12.20;59.90;;;;;;4999650;28;20016;-89
2022/01/29 03:41:11;;;;;;;;;;;12.20;59.90;;;;;;4976840;28;19968;-89
2022/01/29 03:43:43;;;;;;;;;;;12.20;59.90;;;;;;4995959;28;19977;-90
2022/01/29 03:46:08;;;;;;;;;;;12.20;60.00;;;;;;4994631;28;20234;-89
2022/01/29 03:48:34;;;;;;;;;;;12.30;59.90;;;;;;4997992;28;20309;-89
2022/01/29 03:50:59;;;;;;;;;;;12.20;60.00;;;;;;4979385;28;19991;-89
2022/01/29 03:53:25;;;;;;;;;;;12.30;60.00;;;;;;4987659;28;19918;-89
2022/01/29 03:55:50;;;;;;;;;;;12.30;60.00;;;;;;4978156;28;20415;-89
2022/01/29 03:58:16;;;;;;;;;;;12.30;60.00;;;;;;4978222;28;19972;-89
2022/01/29 04:00:41;;;;;;;;;;;12.30;60.00;;;;;;5000282;28;19898;-89
2022/01/29 04:03:07;;;;;;;;;;;12.30;59.80;;;;;;4963371;28;20071;-90
2022/01/29 04:05:32;;;;;;;;;;;12.30;60.00;;;;;;4988148;28;20435;-89
2022/01/29 04:07:58;;;;;;;;;;;12.30;59.90;;;;;;4979134;28;19917;-89
2022/01/29 04:10:24;;;;;;;;;;;12.30;59.90;;;;;;4976301;28;19925;-89
2022/01/29 04:12:52;;;;;;;;;;;12.30;59.80;;;;;;4970312;28;20453;-89
2022/01/29 04:15:17;;;;;;;;;;;12.40;60.00;;;;;;4972536;28;19920;-89
2022/01/29 04:17:43;;;;;;;;;;;12.40;59.80;;;;;;4993610;28;20325;-89
2022/01/29 04:20:09;;;;;;;;;;;12.40;59.80;;;;;;4976481;28;20009;-89
2022/01/29 04:22:34;;;;;;;;;;;12.50;59.90;;;;;;4977170;28;19922;-89
2022/01/29 04:24:59;;;;;;;;;;;12.40;59.90;;;;;;4981057;28;19914;-89
2022/01/29 04:27:35;;;;;;;;;;;12.50;60.00;;;;;;4982307;28;19968;-89
2022/01/29 04:30:07;;;;;;;;;;;12.50;60.00;;;;;;4986482;28;20278;-89
2022/01/29 04:33:24;;;;;;;;;;;12.50;60.10;;;;;;4970657;28;19944;-89
2022/01/29 04:35:21;;;;;;;;;;;12.40;60.20;;;;;;4989384;28;19968;-89
2022/01/29 04:37:46;;;;;;;;;;;12.40;60.40;;;;;;4988109;28;20357;-88
2022/01/29 04:40:12;;;;;;;;;;;12.40;60.40;;;;;;4981364;28;19958;-89
2022/01/29 04:42:38;;;;;;;;;;;12.40;60.50;;;;;;4961630;28;19922;-89
2022/01/29 04:45:04;;;;;;;;;;;12.40;60.60;;;;;;4960859;28;19914;-89
2022/01/29 04:47:29;;;;;;;;;;;12.40;60.60;;;;;;4961839;28;19918;-89
2022/01/29 04:49:55;;;;;;;;;;;12.30;60.80;;;;;;4999520;28;19921;-89
2022/01/29 04:52:20;;;;;;;;;;;12.30;60.90;;;;;;4980540;28;19995;-89
2022/01/29 04:54:46;;;;;;;;;;;12.30;61.10;;;;;;4996920;28;20518;-89
2022/01/29 04:57:11;;;;;;;;;;;12.30;61.30;;;;;;4979856;28;20395;-89
2022/01/29 04:59:37;;;;;;;;;;;12.30;61.30;;;;;;4996247;28;20886;-89
2022/01/29 05:02:02;;;;;;;;;;;12.30;61.40;;;;;;4993574;28;19918;-89
2022/01/29 05:04:28;;;;;;;;;;;12.30;61.50;;;;;;4998745;28;19922;-89
2022/01/29 05:06:53;;;;;;;;;;;12.20;61.60;;;;;;4998503;28;19960;-89
2022/01/29 05:09:19;;;;;;;;;;;12.20;61.60;;;;;;5001727;28;19910;-90
2022/01/29 05:11:48;;;;;;;;;;;12.20;61.60;;;;;;4995554;28;19918;-89
2022/01/29 05:14:23;;;;;;;;;;;12.20;61.70;;;;;;4982660;28;19964;-89
2022/01/29 05:25:34;;;;;;;;;;;12.20;61.70;;;;;;4998290;28;19914;-89
2022/01/29 05:27:47;;;;;;;;;;;12.30;61.80;;;;;;4998791;28;19928;-90
2022/01/29 05:30:12;;;;;;;;;;;12.30;61.90;;;;;;4980486;28;19921;-89
2022/01/29 05:32:38;;;;;;;;;;;12.30;61.80;;;;;;4996900;28;20000;-89
2022/01/29 05:35:04;;;;;;;;;;;12.30;61.80;;;;;;4979437;28;19914;-89
2022/01/29 05:37:29;;;;;;;;;;;12.30;61.60;;;;;;4984229;28;19928;-89
2022/01/29 05:39:55;;;;;;;;;;;12.40;61.80;;;;;;4968152;28;20014;-89
2022/01/29 05:42:20;;;;;;;;;;;12.40;61.70;;;;;;4997214;28;19926;-89
2022/01/29 05:44:46;;;;;;;;;;;12.40;61.70;;;;;;4997495;28;20254;-89
2022/01/29 05:47:11;;;;;;;;;;;12.50;61.80;;;;;;4999733;28;19924;-89
2022/01/29 05:49:37;;;;;;;;;;;12.40;61.80;;;;;;4977555;28;19924;-89
2022/01/29 05:52:02;;;;;;;;;;;12.50;61.80;;;;;;4996181;28;19941;-89
2022/01/29 05:54:28;;;;;;;;;;;12.50;61.90;;;;;;5000910;28;20052;-89
2022/01/29 05:56:53;;;;;;;;;;;12.50;61.90;;;;;;4996254;28;20383;-89
2022/01/29 05:59:19;;;;;;;;;;;12.50;61.80;;;;;;4997009;28;19969;-90
2022/01/29 06:01:45;;;;;;;;;;;12.50;61.80;;;;;;4978912;28;19929;-90
2022/01/29 06:04:10;;;;;;;;;;;12.50;61.80;;;;;;4980085;28;19914;-89
2022/01/29 06:06:35;;;;;;;;;;;12.60;61.80;;;;;;4995989;28;19956;-89
2022/01/29 06:09:04;;;;;;;;;;;12.60;61.80;;;;;;4980094;28;19972;-90
2022/01/29 06:11:30;;;;;;;;;;;12.70;61.70;;;;;;4997458;28;19928;-89
2022/01/29 06:13:56;;;;;;;;;;;12.60;61.70;;;;;;4995927;28;19976;-90
2022/01/29 06:16:21;;;;;;;;;;;12.70;61.70;;;;;;4995390;28;20369;-89
2022/01/29 06:18:47;;;;;;;;;;;12.70;61.70;;;;;;4980562;28;19942;-89
2022/01/29 06:21:14;;;;;;;;;;;12.70;61.60;;;;;;4997891;28;19914;-89
2022/01/29 06:23:39;;;;;;;;;;;12.70;61.70;;;;;;4998437;28;19956;-90
2022/01/29 06:26:09;;;;;;;;;;;12.80;61.70;;;;;;4996690;28;19913;-89
2022/01/29 06:28:36;;;;;;;;;;;12.70;61.60;;;;;;4998765;28;19998;-88
2022/01/29 06:31:02;;;;;;;;;;;12.70;61.60;;;;;;4996526;28;19918;-89
2022/01/29 06:33:28;;;;;;;;;;;12.80;61.60;;;;;;4979146;28;20044;-89
2022/01/29 06:35:53;;;;;;;;;;;12.80;61.60;;;;;;4979166;28;19914;-89
2022/01/29 06:38:19;;;;;;;;;;;12.80;61.60;;;;;;4979904;28;20028;-89
2022/01/29 06:40:45;;;;;;;;;;;12.80;61.60;;;;;;4993157;28;19960;-89
2022/01/29 06:43:10;;;;;;;;;;;12.80;61.70;;;;;;4997056;28;19913;-89
2022/01/29 06:45:36;;;;;;;;;;;12.80;61.60;;;;;;4988440;28;19914;-90
2022/01/29 06:48:03;;;;;;;;;;;12.90;61.50;;;;;;4988832;28;19922;-89
2022/01/29 06:50:28;;;;;;;;;;;12.90;61.60;;;;;;4968897;28;19929;-89
2022/01/29 06:52:54;;;;;;;;;;;12.90;61.60;;;;;;4985441;28;19922;-90
2022/01/29 06:55:19;;;;;;;;;;;12.90;61.60;;;;;;4987480;28;20350;-89
2022/01/29 06:57:45;;;;;;;;;;;13.00;61.60;;;;;;4968507;28;20264;-89
2022/01/29 07:00:11;;;;;;;;;;;13.00;61.60;;;;;;4972547;28;19929;-89
2022/01/29 07:02:36;;;;;;;;;;;13.00;61.50;;;;;;4973352;28;19921;-89
2022/01/29 07:05:06;;;;;;;;;;;13.00;61.50;;;;;;4961916;28;19977;-89
2022/01/29 07:07:32;;;;;;;;;;;13.00;61.50;;;;;;4984014;28;19924;-89
2022/01/29 07:09:57;;;;;;;;;;;13.00;61.50;;;;;;4977889;28;19913;-89
2022/01/29 07:12:23;;;;;;;;;;;13.00;61.50;;;;;;4979581;28;19918;-89
2022/01/29 07:14:49;;;;;;;;;;;13.10;61.40;;;;;;4989614;28;19956;-89
2022/01/29 07:17:17;;;;;;;;;;;13.10;61.40;;;;;;4969917;28;19914;-89
2022/01/29 07:19:43;;;;;;;;;;;13.10;61.40;;;;;;4984355;28;19922;-89
2022/01/29 07:22:09;;;;;;;;;;;13.10;61.40;;;;;;4974564;28;19958;-89
2022/01/29 07:24:35;;;;;;;;;;;13.20;61.40;;;;;;4992153;28;19921;-88
2022/01/29 07:27:00;;;;;;;;;;;13.10;61.30;;;;;;4974846;28;19937;-89
2022/01/29 07:29:26;;;;;;;;;;;13.20;61.40;;;;;;4967171;28;20312;-90
2022/01/29 07:31:51;;;;;;;;;;;13.20;61.40;;;;;;4972501;28;19921;-90
2022/01/29 07:34:17;;;;;;;;;;;13.20;61.30;;;;;;4978173;28;19910;-90
2022/01/29 07:36:43;;;;;;;;;;;13.20;61.50;;;;;;4964081;28;19973;-90
2022/01/29 07:39:08;;;;;;;;;;;13.30;61.40;;;;;;4982737;28;19964;-91
2022/01/29 07:41:34;;;;;;;;;;;13.30;61.40;;;;;;4978102;28;19921;-90
2022/01/29 07:44:00;;;;;;;;;;;13.30;61.50;;;;;;4981216;28;20501;-90
2022/01/29 07:46:25;;;;;;;;;;;13.30;61.30;;;;;;4995161;28;19914;-90
2022/01/29 07:48:51;;;;;;;;;;;13.30;61.40;;;;;;4968682;28;19998;-89
2022/01/29 07:51:16;;;;;;;;;;;13.30;61.30;;;;;;4976852;28;19918;-90
2022/01/29 07:53:42;;;;;;;;;;;13.30;61.30;;;;;;4992244;28;19918;-90
2022/01/29 07:56:07;;;;;;;;;;;13.30;61.40;;;;;;4985397;28;19937;-89
2022/01/29 07:58:32;;;;;;;;;;;13.40;61.50;;;;;;4985520;28;19959;-89
2022/01/29 08:00:58;;;;;;;;;;;13.40;61.50;;;;;;4964954;28;19914;-89
2022/01/29 08:03:23;;;;;;;;;;;13.40;61.40;;;;;;4974448;28;19918;-89
2022/01/29 08:05:49;;;;;;;;;;;13.40;61.40;;;;;;4963128;28;19953;-89
2022/01/29 08:08:14;;;;;;;;;;;13.40;61.40;;;;;;4976214;28;19913;-89
2022/01/29 08:10:40;;;;;;;;;;;13.50;61.40;;;;;;4976665;28;19914;-90
2022/01/29 08:13:05;;;;;;;;;;;13.50;61.50;;;;;;4964863;28;19921;-89
2022/01/29 08:15:31;;;;;;;;;;;13.50;61.50;;;;;;4968223;28;20282;-89
2022/01/29 08:17:56;;;;;;;;;;;13.40;61.50;;;;;;4964743;28;20254;-90
2022/01/29 08:20:22;;;;;;;;;;;13.50;61.60;;;;;;4966240;28;19918;-89
2022/01/29 08:22:47;;;;;;;;;;;13.50;61.60;;;;;;4982653;28;19914;-89
2022/01/29 08:25:13;;;;;;;;;;;13.50;61.70;;;;;;4982901;28;20293;-90
2022/01/29 08:27:39;;;;;;;;;;;13.50;61.70;;;;;;4994738;28;19921;-89
2022/01/29 08:30:05;;;;;;;;;;;13.50;61.70;;;;;;4997741;28;19941;-89
2022/01/29 08:32:30;;;;;;;;;;;13.50;61.80;;;;;;4997862;28;19941;-89
2022/01/29 08:34:55;;;;;;;;;;;13.50;61.90;;;;;;4981286;28;19949;-89
2022/01/29 08:37:21;;;;;;;;;;;13.60;61.90;;;;;;4980525;28;19945;-89
2022/01/29 08:39:47;;;;;;;;;;;13.50;62.00;;;;;;4998256;28;19964;-89
2022/01/29 08:42:12;;;;;;;;;;;13.60;62.00;;;;;;4997682;28;19980;-89
2022/01/29 08:44:38;;;;;;;;;;;13.60;62.00;;;;;;5003792;28;19914;-89
2022/01/29 08:47:03;;;;;;;;;;;13.60;62.00;;;;;;4981559;28;19914;-88
2022/01/29 08:49:29;;;;;;;;;;;13.60;62.10;;;;;;5000464;28;19920;-89
2022/01/29 08:51:54;;;;;;;;;;;13.60;62.10;;;;;;4997902;28;19945;-89
2022/01/29 08:54:20;;;;;;;;;;;13.60;62.20;;;;;;4982384;28;19913;-89
2022/01/29 08:56:45;;;;;;;;;;;13.70;62.20;;;;;;4993765;28;19941;-90
2022/01/29 08:59:11;;;;;;;;;;;13.60;62.30;;;;;;4982617;28;19933;-89
2022/01/29 09:01:36;;;;;;;;;;;13.70;62.30;;;;;;4984794;28;19965;-90
2022/01/29 09:04:02;;;;;;;;;;;13.60;62.50;;;;;;4998422;28;19910;-90
2022/01/29 09:06:28;;;;;;;;;;;13.70;62.40;;;;;;4973436;28;19918;-90
2022/01/29 09:08:53;;;;;;;;;;;13.60;62.50;;;;;;4978111;28;20250;-90
2022/01/29 09:11:19;;;;;;;;;;;13.70;62.60;;;;;;4977457;28;20360;-90
2022/01/29 09:13:44;;;;;;;;;;;13.70;62.70;;;;;;4981203;28;19918;-89
2022/01/29 09:16:10;;;;;;;;;;;13.70;62.80;;;;;;4979232;28;19964;-89
2022/01/29 09:18:45;;;;;;;;;;;13.70;62.80;;;;;;4981635;28;20008;-91
2022/01/29 09:21:11;;;;;;;;;;;13.60;62.90;;;;;;4996534;28;19956;-90
2022/01/29 09:23:37;;;;;;;;;;;13.60;63.10;;;;;;4975908;28;19919;-90
2022/01/29 09:26:03;;;;;;;;;;;13.70;63.20;;;;;;4997606;28;19921;-90
2022/01/29 09:28:29;;;;;;;;;;;13.70;63.30;;;;;;4979768;28;19913;-90
2022/01/29 09:30:54;;;;;;;;;;;13.70;63.30;;;;;;4981038;28;20012;-90
2022/01/29 09:33:20;;;;;;;;;;;13.70;63.40;;;;;;4978003;28;19916;-89
2022/01/29 09:35:45;;;;;;;;;;;13.70;63.50;;;;;;4996560;28;20444;-90
2022/01/29 09:38:11;;;;;;;;;;;13.80;63.50;;;;;;4993826;28;19929;-90
2022/01/29 09:40:37;;;;;;;;;;;13.80;63.40;;;;;;4988679;28;19944;-89
2022/01/29 09:43:06;;;;;;;;;;;13.80;63.70;;;;;;4972496;28;19910;-89
2022/01/29 09:45:31;;;;;;;;;;;13.80;63.80;;;;;;4995653;28;20338;-89
2022/01/29 09:48:03;;;;;;;;;;;13.80;63.80;;;;;;4989687;28;19915;-90
2022/01/29 09:50:36;;;;;;;;;;;13.80;63.90;;;;;;4968771;28;19918;-90
2022/01/29 09:53:03;;;;;;;;;;;13.80;63.90;;;;;;4972804;28;19949;-89
2022/01/29 09:55:29;;;;;;;;;;;13.90;64.00;;;;;;4997676;28;19944;-90
2022/01/29 09:57:54;;;;;;;;;;;13.90;63.90;;;;;;4978547;28;19910;-91
2022/01/29 10:00:20;;;;;;;;;;;14.00;64.10;;;;;;4978108;28;19925;-90
2022/01/29 10:03:06;;;;;;;;;;;14.00;64.10;;;;;;4992838;28;20035;-90
2022/01/29 10:05:35;;;;;;;;;;;14.10;64.10;;;;;;4964967;28;19929;-90
2022/01/29 10:08:01;;;;;;;;;;;14.10;64.20;;;;;;4975638;28;19924;-89
2022/01/29 10:10:27;;;;;;;;;;;14.20;64.30;;;;;;4974379;28;19989;-90
2022/01/29 10:12:52;;;;;;;;;;;14.20;64.30;;;;;;4993320;28;20408;-90
2022/01/29 10:15:21;;;;;;;;;;;14.30;64.20;;;;;;4979424;28;19937;-90
2022/01/29 10:17:47;;;;;;;;;;;14.30;64.30;;;;;;4983476;28;19910;-90
2022/01/29 10:20:15;;;;;;;;;;;14.30;64.40;;;;;;4974173;28;19922;-90
2022/01/29 10:22:40;;;;;;;;;;;14.30;64.30;;;;;;4989436;28;19910;-90
2022/01/29 10:25:26;;;;;;;;;;;14.30;64.50;;;;;;4995920;28;19922;-90
2022/01/29 10:28:11;;;;;;;;;;;14.40;64.80;;;;;;4997750;28;19910;-90
2022/01/29 10:30:56;;;;;;;;;;;14.50;64.80;;;;;;4994828;28;19929;-89
2022/01/29 10:33:30;;;;;;;;;;;14.50;64.90;;;;;;4996070;28;19910;-90
2022/01/29 10:35:56;;;;;;;;;;;14.50;64.50;;;;;;4996673;28;19985;-91
2022/01/29 10:38:29;;;;;;;;;;;14.50;64.60;;;;;;4978632;28;19950;-90
2022/01/29 10:41:20;;;;;;;;;;;14.50;64.50;;;;;;4976518;28;19926;-90
2022/01/29 10:44:00;;;;;;;;;;;14.50;64.50;;;;;;4977766;28;19964;-90
2022/01/29 10:46:25;;;;;;;;;;;14.50;64.80;;;;;;4978787;28;19924;-90
2022/01/29 10:48:51;;;;;;;;;;;14.50;64.60;;;;;;4982773;28;19914;-90
2022/01/29 10:51:16;;;;;;;;;;;14.50;64.40;;;;;;4974295;28;20008;-90
2022/01/29 10:53:42;;;;;;;;;;;14.50;64.60;;;;;;4995399;28;19917;-91
2022/01/29 10:56:07;;;;;;;;;;;14.50;64.60;;;;;;4996545;28;20008;-90
2022/01/29 10:58:41;;;;;;;;;;;14.50;64.60;;;;;;4978811;28;20060;-90
2022/01/29 11:01:10;;;;;;;;;;;14.50;64.80;;;;;;4978470;28;20534;-90
2022/01/29 11:03:37;;;;;;;;;;;14.50;64.70;;;;;;4994262;28;21896;-90
2022/01/29 11:06:03;;;;;;;;;;;14.60;64.80;;;;;;4978399;28;20016;-90
2022/01/29 11:08:29;;;;;;;;;;;14.50;64.80;;;;;;4980676;28;19918;-91
2022/01/29 11:10:55;;;;;;;;;;;14.60;64.70;;;;;;4995375;28;19914;-91
2022/01/29 11:13:20;;;;;;;;;;;14.50;64.60;;;;;;4979704;28;19921;-91
2022/01/29 11:15:46;;;;;;;;;;;14.60;64.70;;;;;;4979518;28;19918;-91
2022/01/29 11:18:12;;;;;;;;;;;14.50;64.90;;;;;;4993700;28;19945;-91
2022/01/29 11:20:38;;;;;;;;;;;14.60;64.90;;;;;;4976502;28;19925;-91
2022/01/29 11:23:03;;;;;;;;;;;14.60;64.90;;;;;;4974268;28;19918;-91
2022/01/29 11:25:34;;;;;;;;;;;14.60;65.00;;;;;;4994263;28;19913;-91
2022/01/29 11:28:26;;;;;;;;;;;14.60;65.20;;;;;;4977376;28;19922;-88
2022/01/29 11:31:11;;;;;;;;;;;14.70;65.30;;;;;;4975630;28;19925;-87
2022/01/29 11:33:55;;;;;;;;;;;14.70;65.10;;;;;;4995178;28;19914;-91
2022/01/29 11:36:21;;;;;;;;;;;14.70;65.10;;;;;;4982071;28;20377;-90
2022/01/29 11:38:46;;;;;;;;;;;14.60;65.50;;;;;;4998188;28;19918;-90
2022/01/29 11:41:11;;;;;;;;;;;14.70;65.30;;;;;;4978896;28;19949;-89
2022/01/29 11:43:38;;;;;;;;;;;14.70;65.30;;;;;;4997045;28;19910;-89
2022/01/29 11:46:06;;;;;;;;;;;14.70;65.10;;;;;;4986686;28;19918;-90
2022/01/29 11:48:34;;;;;;;;;;;14.70;65.10;;;;;;4979144;28;19917;-89
2022/01/29 11:51:01;;;;;;;;;;;14.80;65.10;;;;;;4982303;28;19917;-89
2022/01/29 11:53:45;;;;;;;;;;;14.70;64.90;;;;;;4996689;28;19945;-89
2022/01/29 11:56:29;;;;;;;;;;;14.80;65.00;;;;;;4978734;28;19976;-89
2022/01/29 11:59:14;;;;;;;;;;;14.70;65.10;;;;;;4982883;28;20176;-89
2022/01/29 12:01:39;;;;;;;;;;;14.70;65.10;;;;;;4996066;28;19922;-89
2022/01/29 12:04:05;;;;;;;;;;;14.70;65.40;;;;;;4996366;28;19910;-89
2022/01/29 12:06:34;;;;;;;;;;;14.70;65.50;;;;;;4983302;28;19972;-90
2022/01/29 12:09:07;;;;;;;;;;;14.70;65.50;;;;;;4997012;28;19910;-89
2022/01/29 12:11:41;;;;;;;;;;;14.80;65.30;;;;;;4999562;28;20385;-90
2022/01/29 12:14:12;;;;;;;;;;;14.70;65.40;;;;;;4980502;28;19910;-90
2022/01/29 12:16:57;;;;;;;;;;;14.80;65.40;;;;;;4978344;28;19933;-89
2022/01/29 12:19:40;;;;;;;;;;;14.80;65.60;;;;;;4981204;28;19929;-90
2022/01/29 12:22:15;;;;;;;;;;;14.80;65.50;;;;;;4962613;28;19921;-90
2022/01/29 12:24:42;;;;;;;;;;;14.80;65.60;;;;;;4982194;28;20288;-91
2022/01/29 12:27:08;;;;;;;;;;;14.80;65.70;;;;;;4984930;28;19909;-89
2022/01/29 12:29:34;;;;;;;;;;;14.70;65.60;;;;;;5000006;28;20304;-90
2022/01/29 12:32:03;;;;;;;;;;;14.80;65.40;;;;;;4999129;28;19918;-90
2022/01/29 12:34:30;;;;;;;;;;;14.80;65.50;;;;;;4976503;28;19922;-90
2022/01/29 12:37:15;;;;;;;;;;;14.80;65.50;;;;;;4997666;28;19914;-90
2022/01/29 12:39:42;;;;;;;;;;;14.80;65.60;;;;;;4993969;28;19930;-89
2022/01/29 12:44:33;;;;;;;;;;;14.90;65.50;;;;;;5004784;28;20282;-90
2022/01/29 12:46:59;;;;;;;;;;;14.90;65.60;;;;;;5002782;28;20000;-89
2022/01/29 12:49:25;;;;;;;;;;;15.00;65.70;;;;;;4984387;28;19933;-90
2022/01/29 12:51:50;;;;;;;;;;;15.00;65.80;;;;;;5005603;28;19965;-89
2022/01/29 12:54:16;;;;;;;;;;;15.10;65.70;;;;;;4985526;28;19914;-90
2022/01/29 12:56:41;;;;;;;;;;;15.10;65.70;;;;;;5003304;28;19945;-89
2022/01/29 12:59:08;;;;;;;;;;;15.20;65.70;;;;;;4985862;28;19924;-90
2022/01/29 13:01:34;;;;;;;;;;;15.30;65.50;;;;;;4987140;28;19902;-90
2022/01/29 13:04:01;;;;;;;;;;;15.30;65.60;;;;;;4985252;28;20080;-90
2022/01/29 13:06:27;;;;;;;;;;;15.40;65.50;;;;;;5001789;28;19918;-90
2022/01/29 13:08:53;;;;;;;;;;;15.40;65.30;;;;;;5002274;28;20321;-90
2022/01/29 13:11:29;;;;;;;;;;;15.50;65.20;;;;;;4979645;28;19925;-91
2022/01/29 13:14:11;;;;;;;;;;;15.50;65.00;;;;;;4982327;28;19913;-91
2022/01/29 13:16:39;;;;;;;;;;;15.60;65.00;;;;;;4983938;28;19921;-90
2022/01/29 13:19:05;;;;;;;;;;;15.70;65.00;;;;;;4986738;28;19922;-90
2022/01/29 13:21:32;;;;;;;;;;;15.70;64.80;;;;;;4987266;28;19990;-89
2022/01/29 13:23:58;;;;;;;;;;;15.70;64.70;;;;;;5001356;28;19910;-89
2022/01/29 13:26:29;;;;;;;;;;;15.70;64.50;;;;;;4981156;28;19968;-89
2022/01/29 13:29:05;;;;;;;;;;;15.80;64.40;;;;;;5004500;28;19909;-89
2022/01/29 13:31:44;;;;;;;;;;;15.70;64.30;;;;;;4981038;28;19918;-90
2022/01/29 13:34:25;;;;;;;;;;;15.70;64.30;;;;;;4986446;28;19981;-90
2022/01/29 13:36:51;;;;;;;;;;;15.70;64.20;;;;;;4987182;28;19925;-90
2022/01/29 13:39:18;;;;;;;;;;;15.70;64.20;;;;;;5002382;28;19925;-90
2022/01/29 13:41:44;;;;;;;;;;;15.60;64.20;;;;;;4984937;28;19980;-89
2022/01/29 13:44:10;;;;;;;;;;;15.70;64.30;;;;;;5001515;28;19909;-89
2022/01/29 13:46:36;;;;;;;;;;;15.60;64.20;;;;;;4985126;28;19910;-90
2022/01/29 13:49:03;;;;;;;;;;;15.60;64.20;;;;;;5001522;28;20031;-89
2022/01/29 13:51:30;;;;;;;;;;;15.60;64.10;;;;;;4983187;28;19925;-91
2022/01/29 13:53:58;;;;;;;;;;;15.60;64.10;;;;;;4984627;28;19921;-89
2022/01/29 13:56:24;;;;;;;;;;;15.60;64.10;;;;;;4982686;28;20036;-90
2022/01/29 13:58:55;;;;;;;;;;;15.50;64.00;;;;;;5003182;28;20019;-90
2022/01/29 14:01:39;;;;;;;;;;;15.50;64.20;;;;;;4999416;28;19918;-89
2022/01/29 14:04:06;;;;;;;;;;;15.50;64.30;;;;;;4995846;28;20317;-90
2022/01/29 14:06:42;;;;;;;;;;;15.50;64.30;;;;;;4986595;28;19921;-90
2022/01/29 14:09:14;;;;;;;;;;;15.50;64.30;;;;;;5007643;28;19909;-90
2022/01/29 14:11:52;;;;;;;;;;;15.50;64.40;;;;;;4987527;28;19921;-91
2022/01/29 14:14:17;;;;;;;;;;;15.50;64.50;;;;;;4996309;28;20344;-91
2022/01/29 14:16:43;;;;;;;;;;;15.50;64.50;;;;;;4979908;28;19918;-89
2022/01/29 14:19:12;;;;;;;;;;;15.50;64.50;;;;;;4999592;28;19918;-90
2022/01/29 14:21:38;;;;;;;;;;;15.60;64.40;;;;;;4985013;28;19921;-89
2022/01/29 14:24:04;;;;;;;;;;;15.60;64.30;;;;;;4981276;28;19913;-90
2022/01/29 14:26:32;;;;;;;;;;;15.70;64.50;;;;;;4983810;28;19918;-90
2022/01/29 14:28:58;;;;;;;;;;;15.70;64.10;;;;;;4980196;28;19992;-90